sensor_id;sensor_type;location;lat;lon;timestamp;P1;durP1;ratioP1;P2;durP2;ratioP2
20065;SDS011;10193;48.884;9.182;2022-12-29T00:01:32;2.55;;;1.50;;
20065;SDS011;10193;48.884;9.182;2022-12-29T00:04:00;4.00;;;1.35;;
20065;SDS011;10193;48.884;9.182;2022-12-29T00:06:28;1.35;;;1.30;;
20065;SDS011;10193;48.884;9.182;2022-12-29T00:08:55;1.17;;;1.13;;
20065;SDS011;10193;48.884;9.182;2022-12-29T00:11:22;1.27;;;1.17;;
20065;SDS011;10193;48.884;9.182;2022-12-29T00:13:51;1.60;;;1.08;;
20065;SDS011;10193;48.884;9.182;2022-12-29T00:16:36;1.13;;;1.13;;
20065;SDS011;10193;48.884;9.182;2022-12-29T00:19:04;1.33;;;1.23;;
20065;SDS011;10193;48.884;9.182;2022-12-29T00:21:32;1.30;;;1.20;;
20065;SDS011;10193;48.884;9.182;2022-12-29T00:24:17;0.95;;;0.95;;
20065;SDS011;10193;48.884;9.182;2022-12-29T00:27:10;1.25;;;0.90;;
20065;SDS011;10193;48.884;9.182;2022-12-29T00:29:55;1.40;;;1.30;;
20065;SDS011;10193;48.884;9.182;2022-12-29T00:32:45;1.70;;;1.45;;
20065;SDS011;10193;48.884;9.182;2022-12-29T00:35:31;1.40;;;1.27;;
20065;SDS011;10193;48.884;9.182;2022-12-29T00:38:03;1.58;;;1.20;;
20065;SDS011;10193;48.884;9.182;2022-12-29T00:40:50;1.67;;;1.23;;
20065;SDS011;10193;48.884;9.182;2022-12-29T00:43:35;1.50;;;1.20;;
20065;SDS011;10193;48.884;9.182;2022-12-29T00:46:19;1.13;;;1.05;;
20065;SDS011;10193;48.884;9.182;2022-12-29T00:48:45;1.20;;;1.10;;
20065;SDS011;10193;48.884;9.182;2022-12-29T00:51:30;1.08;;;0.98;;
20065;SDS011;10193;48.884;9.182;2022-12-29T00:53:58;1.30;;;1.20;;
20065;SDS011;10193;48.884;9.182;2022-12-29T00:56:24;1.30;;;1.17;;
20065;SDS011;10193;48.884;9.182;2022-12-29T00:58:51;1.27;;;1.15;;
20065;SDS011;10193;48.884;9.182;2022-12-29T01:01:18;1.10;;;1.10;;
20065;SDS011;10193;48.884;9.182;2022-12-29T01:03:44;1.73;;;1.35;;
20065;SDS011;10193;48.884;9.182;2022-12-29T01:06:11;1.17;;;1.17;;
20065;SDS011;10193;48.884;9.182;2022-12-29T01:08:38;1.48;;;1.27;;
20065;SDS011;10193;48.884;9.182;2022-12-29T01:11:07;1.70;;;1.40;;
20065;SDS011;10193;48.884;9.182;2022-12-29T01:13:34;1.23;;;1.13;;
20065;SDS011;10193;48.884;9.182;2022-12-29T01:16:02;1.25;;;1.15;;
20065;SDS011;10193;48.884;9.182;2022-12-29T01:18:30;1.40;;;1.30;;
20065;SDS011;10193;48.884;9.182;2022-12-29T01:21:00;1.23;;;1.10;;
20065;SDS011;10193;48.884;9.182;2022-12-29T01:23:28;2.38;;;1.42;;
20065;SDS011;10193;48.884;9.182;2022-12-29T01:25:54;0.95;;;0.85;;
20065;SDS011;10193;48.884;9.182;2022-12-29T01:28:23;1.10;;;1.00;;
20065;SDS011;10193;48.884;9.182;2022-12-29T01:30:49;1.15;;;1.08;;
20065;SDS011;10193;48.884;9.182;2022-12-29T01:33:16;1.48;;;1.20;;
20065;SDS011;10193;48.884;9.182;2022-12-29T01:35:43;1.27;;;1.05;;
20065;SDS011;10193;48.884;9.182;2022-12-29T01:38:09;1.30;;;1.20;;
20065;SDS011;10193;48.884;9.182;2022-12-29T01:40:42;1.23;;;1.20;;
20065;SDS011;10193;48.884;9.182;2022-12-29T01:43:10;0.93;;;0.93;;
20065;SDS011;10193;48.884;9.182;2022-12-29T01:45:40;1.33;;;1.20;;
20065;SDS011;10193;48.884;9.182;2022-12-29T01:48:14;1.20;;;1.10;;
20065;SDS011;10193;48.884;9.182;2022-12-29T01:50:43;1.88;;;1.20;;
20065;SDS011;10193;48.884;9.182;2022-12-29T01:53:13;1.50;;;1.20;;
20065;SDS011;10193;48.884;9.182;2022-12-29T01:55:44;1.40;;;1.15;;
20065;SDS011;10193;48.884;9.182;2022-12-29T01:58:14;1.98;;;1.20;;
20065;SDS011;10193;48.884;9.182;2022-12-29T02:00:45;1.30;;;1.20;;
20065;SDS011;10193;48.884;9.182;2022-12-29T02:03:12;1.00;;;1.00;;
20065;SDS011;10193;48.884;9.182;2022-12-29T02:05:40;1.30;;;1.20;;
20065;SDS011;10193;48.884;9.182;2022-12-29T02:08:11;1.45;;;1.30;;
20065;SDS011;10193;48.884;9.182;2022-12-29T02:10:39;1.08;;;1.00;;
20065;SDS011;10193;48.884;9.182;2022-12-29T02:13:08;1.08;;;1.08;;
20065;SDS011;10193;48.884;9.182;2022-12-29T02:15:36;1.80;;;1.20;;
20065;SDS011;10193;48.884;9.182;2022-12-29T02:18:15;1.00;;;1.00;;
20065;SDS011;10193;48.884;9.182;2022-12-29T02:20:55;1.55;;;1.08;;
20065;SDS011;10193;48.884;9.182;2022-12-29T02:24:15;1.40;;;1.00;;
20065;SDS011;10193;48.884;9.182;2022-12-29T02:30:03;1.17;;;0.93;;
20065;SDS011;10193;48.884;9.182;2022-12-29T02:32:37;1.15;;;0.95;;
20065;SDS011;10193;48.884;9.182;2022-12-29T02:35:09;0.70;;;0.70;;
20065;SDS011;10193;48.884;9.182;2022-12-29T02:37:44;0.80;;;0.80;;
20065;SDS011;10193;48.884;9.182;2022-12-29T02:40:22;0.98;;;0.98;;
20065;SDS011;10193;48.884;9.182;2022-12-29T02:42:55;1.58;;;0.82;;
20065;SDS011;10193;48.884;9.182;2022-12-29T02:45:29;1.15;;;1.05;;
20065;SDS011;10193;48.884;9.182;2022-12-29T02:48:06;1.10;;;1.00;;
20065;SDS011;10193;48.884;9.182;2022-12-29T02:50:42;1.17;;;1.08;;
20065;SDS011;10193;48.884;9.182;2022-12-29T02:53:15;1.30;;;1.20;;
20065;SDS011;10193;48.884;9.182;2022-12-29T02:56:05;1.17;;;1.02;;
20065;SDS011;10193;48.884;9.182;2022-12-29T02:58:31;1.25;;;1.00;;
20065;SDS011;10193;48.884;9.182;2022-12-29T03:01:02;1.25;;;1.08;;
20065;SDS011;10193;48.884;9.182;2022-12-29T03:03:45;0.98;;;0.98;;
20065;SDS011;10193;48.884;9.182;2022-12-29T03:06:31;1.88;;;1.17;;
20065;SDS011;10193;48.884;9.182;2022-12-29T03:09:07;2.25;;;1.08;;
20065;SDS011;10193;48.884;9.182;2022-12-29T03:11:41;1.83;;;0.90;;
20065;SDS011;10193;48.884;9.182;2022-12-29T03:14:32;1.60;;;0.98;;
20065;SDS011;10193;48.884;9.182;2022-12-29T03:17:22;1.55;;;1.02;;
20065;SDS011;10193;48.884;9.182;2022-12-29T03:19:56;1.00;;;0.90;;
20065;SDS011;10193;48.884;9.182;2022-12-29T03:22:30;1.15;;;1.05;;
20065;SDS011;10193;48.884;9.182;2022-12-29T03:25:02;1.10;;;1.00;;
20065;SDS011;10193;48.884;9.182;2022-12-29T03:27:33;0.80;;;0.80;;
20065;SDS011;10193;48.884;9.182;2022-12-29T03:30:05;2.20;;;0.82;;
20065;SDS011;10193;48.884;9.182;2022-12-29T03:32:35;2.00;;;1.10;;
20065;SDS011;10193;48.884;9.182;2022-12-29T03:35:08;1.20;;;1.10;;
20065;SDS011;10193;48.884;9.182;2022-12-29T03:37:40;2.92;;;1.10;;
20065;SDS011;10193;48.884;9.182;2022-12-29T03:40:10;1.10;;;1.00;;
20065;SDS011;10193;48.884;9.182;2022-12-29T03:42:37;1.23;;;0.90;;
20065;SDS011;10193;48.884;9.182;2022-12-29T03:45:05;1.40;;;0.80;;
20065;SDS011;10193;48.884;9.182;2022-12-29T03:47:34;0.77;;;0.77;;
20065;SDS011;10193;48.884;9.182;2022-12-29T03:50:00;0.98;;;0.98;;
20065;SDS011;10193;48.884;9.182;2022-12-29T03:52:28;1.02;;;0.90;;
20065;SDS011;10193;48.884;9.182;2022-12-29T03:54:55;1.08;;;0.85;;
20065;SDS011;10193;48.884;9.182;2022-12-29T03:57:21;0.95;;;0.85;;
20065;SDS011;10193;48.884;9.182;2022-12-29T03:59:48;1.00;;;1.00;;
20065;SDS011;10193;48.884;9.182;2022-12-29T04:02:15;1.98;;;1.25;;
20065;SDS011;10193;48.884;9.182;2022-12-29T04:04:41;1.13;;;0.70;;
20065;SDS011;10193;48.884;9.182;2022-12-29T04:07:08;0.90;;;0.90;;
20065;SDS011;10193;48.884;9.182;2022-12-29T04:09:36;1.20;;;1.00;;
20065;SDS011;10193;48.884;9.182;2022-12-29T04:12:03;1.20;;;1.00;;
20065;SDS011;10193;48.884;9.182;2022-12-29T04:14:30;1.77;;;0.95;;
20065;SDS011;10193;48.884;9.182;2022-12-29T04:16:56;1.90;;;0.98;;
20065;SDS011;10193;48.884;9.182;2022-12-29T04:19:23;0.70;;;0.70;;
20065;SDS011;10193;48.884;9.182;2022-12-29T04:21:50;1.38;;;1.13;;
20065;SDS011;10193;48.884;9.182;2022-12-29T04:24:16;1.00;;;0.90;;
20065;SDS011;10193;48.884;9.182;2022-12-29T04:26:44;0.75;;;0.73;;
20065;SDS011;10193;48.884;9.182;2022-12-29T04:29:11;0.98;;;0.82;;
20065;SDS011;10193;48.884;9.182;2022-12-29T04:31:38;1.27;;;0.90;;
20065;SDS011;10193;48.884;9.182;2022-12-29T04:34:04;1.00;;;0.88;;
20065;SDS011;10193;48.884;9.182;2022-12-29T04:36:31;0.88;;;0.88;;
20065;SDS011;10193;48.884;9.182;2022-12-29T04:38:58;1.08;;;0.90;;
20065;SDS011;10193;48.884;9.182;2022-12-29T04:41:24;0.70;;;0.70;;
20065;SDS011;10193;48.884;9.182;2022-12-29T04:43:52;1.10;;;0.98;;
20065;SDS011;10193;48.884;9.182;2022-12-29T04:46:19;0.93;;;0.93;;
20065;SDS011;10193;48.884;9.182;2022-12-29T04:48:46;0.80;;;0.80;;
20065;SDS011;10193;48.884;9.182;2022-12-29T04:51:13;2.22;;;0.90;;
20065;SDS011;10193;48.884;9.182;2022-12-29T04:53:39;1.08;;;1.00;;
20065;SDS011;10193;48.884;9.182;2022-12-29T04:56:06;0.90;;;0.80;;
20065;SDS011;10193;48.884;9.182;2022-12-29T04:58:34;0.80;;;0.80;;
20065;SDS011;10193;48.884;9.182;2022-12-29T05:01:02;0.80;;;0.80;;
20065;SDS011;10193;48.884;9.182;2022-12-29T05:03:29;0.80;;;0.80;;
20065;SDS011;10193;48.884;9.182;2022-12-29T05:05:56;1.08;;;1.00;;
20065;SDS011;10193;48.884;9.182;2022-12-29T05:08:23;1.38;;;0.95;;
20065;SDS011;10193;48.884;9.182;2022-12-29T05:10:50;1.27;;;1.17;;
20065;SDS011;10193;48.884;9.182;2022-12-29T05:13:17;1.00;;;1.00;;
20065;SDS011;10193;48.884;9.182;2022-12-29T05:15:46;0.88;;;0.88;;
20065;SDS011;10193;48.884;9.182;2022-12-29T05:18:16;1.70;;;1.15;;
20065;SDS011;10193;48.884;9.182;2022-12-29T05:20:43;1.92;;;1.20;;
20065;SDS011;10193;48.884;9.182;2022-12-29T05:23:11;1.15;;;1.00;;
20065;SDS011;10193;48.884;9.182;2022-12-29T05:25:37;1.25;;;1.15;;
20065;SDS011;10193;48.884;9.182;2022-12-29T05:28:04;0.88;;;0.88;;
20065;SDS011;10193;48.884;9.182;2022-12-29T05:30:31;1.65;;;1.13;;
20065;SDS011;10193;48.884;9.182;2022-12-29T05:32:57;1.98;;;1.20;;
20065;SDS011;10193;48.884;9.182;2022-12-29T05:35:25;1.00;;;1.00;;
20065;SDS011;10193;48.884;9.182;2022-12-29T05:37:52;1.40;;;1.30;;
20065;SDS011;10193;48.884;9.182;2022-12-29T05:40:19;1.95;;;1.27;;
20065;SDS011;10193;48.884;9.182;2022-12-29T05:42:45;1.23;;;1.13;;
20065;SDS011;10193;48.884;9.182;2022-12-29T05:45:12;1.08;;;1.00;;
20065;SDS011;10193;48.884;9.182;2022-12-29T05:47:39;1.13;;;1.10;;
20065;SDS011;10193;48.884;9.182;2022-12-29T05:50:05;2.55;;;1.30;;
20065;SDS011;10193;48.884;9.182;2022-12-29T05:52:34;1.20;;;1.10;;
20065;SDS011;10193;48.884;9.182;2022-12-29T05:55:00;1.30;;;1.20;;
20065;SDS011;10193;48.884;9.182;2022-12-29T05:57:27;1.00;;;1.00;;
20065;SDS011;10193;48.884;9.182;2022-12-29T05:59:54;1.30;;;1.20;;
20065;SDS011;10193;48.884;9.182;2022-12-29T06:02:20;1.30;;;1.20;;
20065;SDS011;10193;48.884;9.182;2022-12-29T06:04:47;1.30;;;1.20;;
20065;SDS011;10193;48.884;9.182;2022-12-29T06:07:14;1.27;;;1.23;;
20065;SDS011;10193;48.884;9.182;2022-12-29T06:09:42;1.15;;;1.10;;
20065;SDS011;10193;48.884;9.182;2022-12-29T06:12:08;1.25;;;1.20;;
20065;SDS011;10193;48.884;9.182;2022-12-29T06:14:35;1.30;;;1.20;;
20065;SDS011;10193;48.884;9.182;2022-12-29T06:17:02;1.35;;;1.25;;
20065;SDS011;10193;48.884;9.182;2022-12-29T06:19:29;1.13;;;1.05;;
20065;SDS011;10193;48.884;9.182;2022-12-29T06:21:55;2.13;;;0.90;;
20065;SDS011;10193;48.884;9.182;2022-12-29T06:24:22;1.27;;;1.10;;
20065;SDS011;10193;48.884;9.182;2022-12-29T06:26:50;1.05;;;1.00;;
20065;SDS011;10193;48.884;9.182;2022-12-29T06:29:17;1.67;;;1.10;;
20065;SDS011;10193;48.884;9.182;2022-12-29T06:31:45;1.27;;;1.17;;
20065;SDS011;10193;48.884;9.182;2022-12-29T06:34:13;1.10;;;1.10;;
20065;SDS011;10193;48.884;9.182;2022-12-29T06:36:40;2.58;;;1.10;;
20065;SDS011;10193;48.884;9.182;2022-12-29T06:39:07;1.02;;;0.93;;
20065;SDS011;10193;48.884;9.182;2022-12-29T06:41:33;1.10;;;1.05;;
20065;SDS011;10193;48.884;9.182;2022-12-29T06:44:01;1.65;;;1.35;;
20065;SDS011;10193;48.884;9.182;2022-12-29T06:46:28;1.60;;;1.30;;
20065;SDS011;10193;48.884;9.182;2022-12-29T06:48:54;1.40;;;1.30;;
20065;SDS011;10193;48.884;9.182;2022-12-29T06:51:21;1.40;;;1.30;;
20065;SDS011;10193;48.884;9.182;2022-12-29T06:53:48;1.40;;;1.30;;
20065;SDS011;10193;48.884;9.182;2022-12-29T06:56:14;1.45;;;1.20;;
20065;SDS011;10193;48.884;9.182;2022-12-29T06:58:41;1.42;;;1.23;;
20065;SDS011;10193;48.884;9.182;2022-12-29T07:01:09;1.75;;;1.30;;
20065;SDS011;10193;48.884;9.182;2022-12-29T07:03:35;1.92;;;1.33;;
20065;SDS011;10193;48.884;9.182;2022-12-29T07:06:02;1.52;;;1.35;;
20065;SDS011;10193;48.884;9.182;2022-12-29T07:08:29;1.30;;;1.20;;
20065;SDS011;10193;48.884;9.182;2022-12-29T07:10:56;1.40;;;1.30;;
20065;SDS011;10193;48.884;9.182;2022-12-29T07:13:23;1.55;;;1.38;;
20065;SDS011;10193;48.884;9.182;2022-12-29T07:15:49;1.17;;;1.13;;
20065;SDS011;10193;48.884;9.182;2022-12-29T07:18:17;1.23;;;1.13;;
20065;SDS011;10193;48.884;9.182;2022-12-29T07:20:44;1.10;;;1.10;;
20065;SDS011;10193;48.884;9.182;2022-12-29T07:23:10;1.20;;;1.10;;
20065;SDS011;10193;48.884;9.182;2022-12-29T07:25:37;0.95;;;0.82;;
20065;SDS011;10193;48.884;9.182;2022-12-29T07:28:05;1.23;;;1.13;;
20065;SDS011;10193;48.884;9.182;2022-12-29T07:30:32;1.45;;;1.35;;
20065;SDS011;10193;48.884;9.182;2022-12-29T07:32:59;1.15;;;1.00;;
20065;SDS011;10193;48.884;9.182;2022-12-29T07:35:27;1.25;;;1.15;;
20065;SDS011;10193;48.884;9.182;2022-12-29T07:37:54;1.20;;;1.10;;
20065;SDS011;10193;48.884;9.182;2022-12-29T07:40:21;1.25;;;1.17;;
20065;SDS011;10193;48.884;9.182;2022-12-29T07:42:47;1.30;;;1.20;;
20065;SDS011;10193;48.884;9.182;2022-12-29T07:45:14;1.00;;;0.90;;
20065;SDS011;10193;48.884;9.182;2022-12-29T07:47:41;1.38;;;1.27;;
20065;SDS011;10193;48.884;9.182;2022-12-29T07:50:08;1.27;;;1.17;;
20065;SDS011;10193;48.884;9.182;2022-12-29T07:52:36;1.38;;;0.95;;
20065;SDS011;10193;48.884;9.182;2022-12-29T07:55:02;2.17;;;1.10;;
20065;SDS011;10193;48.884;9.182;2022-12-29T07:57:29;1.10;;;1.10;;
20065;SDS011;10193;48.884;9.182;2022-12-29T07:59:56;1.10;;;0.98;;
20065;SDS011;10193;48.884;9.182;2022-12-29T08:02:23;1.20;;;1.10;;
20065;SDS011;10193;48.884;9.182;2022-12-29T08:04:51;1.17;;;1.00;;
20065;SDS011;10193;48.884;9.182;2022-12-29T08:07:17;1.70;;;1.00;;
20065;SDS011;10193;48.884;9.182;2022-12-29T08:09:45;1.52;;;1.20;;
20065;SDS011;10193;48.884;9.182;2022-12-29T08:12:12;2.13;;;1.17;;
20065;SDS011;10193;48.884;9.182;2022-12-29T08:14:39;1.00;;;1.00;;
20065;SDS011;10193;48.884;9.182;2022-12-29T08:17:05;1.08;;;1.08;;
20065;SDS011;10193;48.884;9.182;2022-12-29T08:19:32;1.67;;;1.10;;
20065;SDS011;10193;48.884;9.182;2022-12-29T08:21:58;1.45;;;1.15;;
20065;SDS011;10193;48.884;9.182;2022-12-29T08:24:25;0.90;;;0.90;;
20065;SDS011;10193;48.884;9.182;2022-12-29T08:26:53;1.67;;;1.30;;
20065;SDS011;10193;48.884;9.182;2022-12-29T08:29:20;1.30;;;1.20;;
20065;SDS011;10193;48.884;9.182;2022-12-29T08:31:47;1.65;;;1.55;;
20065;SDS011;10193;48.884;9.182;2022-12-29T08:34:14;1.60;;;1.50;;
20065;SDS011;10193;48.884;9.182;2022-12-29T08:36:40;1.83;;;1.42;;
20065;SDS011;10193;48.884;9.182;2022-12-29T08:39:07;1.30;;;1.20;;
20065;SDS011;10193;48.884;9.182;2022-12-29T08:41:33;1.35;;;1.27;;
20065;SDS011;10193;48.884;9.182;2022-12-29T08:44:02;1.70;;;1.17;;
20065;SDS011;10193;48.884;9.182;2022-12-29T08:46:28;1.50;;;1.40;;
20065;SDS011;10193;48.884;9.182;2022-12-29T08:48:55;1.30;;;1.20;;
20065;SDS011;10193;48.884;9.182;2022-12-29T08:51:22;2.42;;;1.30;;
20065;SDS011;10193;48.884;9.182;2022-12-29T08:53:48;2.08;;;1.42;;
20065;SDS011;10193;48.884;9.182;2022-12-29T08:56:15;1.33;;;1.23;;
20065;SDS011;10193;48.884;9.182;2022-12-29T08:58:42;1.63;;;1.15;;
20065;SDS011;10193;48.884;9.182;2022-12-29T09:01:10;1.52;;;1.00;;
20065;SDS011;10193;48.884;9.182;2022-12-29T09:03:37;1.50;;;1.10;;
20065;SDS011;10193;48.884;9.182;2022-12-29T09:06:04;3.83;;;1.70;;
20065;SDS011;10193;48.884;9.182;2022-12-29T09:08:30;1.73;;;1.50;;
20065;SDS011;10193;48.884;9.182;2022-12-29T09:11:04;2.00;;;1.40;;
20065;SDS011;10193;48.884;9.182;2022-12-29T09:13:32;1.33;;;1.27;;
20065;SDS011;10193;48.884;9.182;2022-12-29T09:15:59;2.00;;;1.40;;
20065;SDS011;10193;48.884;9.182;2022-12-29T09:18:27;2.20;;;1.15;;
20065;SDS011;10193;48.884;9.182;2022-12-29T09:20:55;3.30;;;1.50;;
20065;SDS011;10193;48.884;9.182;2022-12-29T09:23:23;2.80;;;1.48;;
20065;SDS011;10193;48.884;9.182;2022-12-29T09:25:50;1.42;;;1.33;;
20065;SDS011;10193;48.884;9.182;2022-12-29T09:28:17;1.65;;;1.38;;
20065;SDS011;10193;48.884;9.182;2022-12-29T09:30:44;1.42;;;1.27;;
20065;SDS011;10193;48.884;9.182;2022-12-29T09:33:11;1.45;;;1.35;;
20065;SDS011;10193;48.884;9.182;2022-12-29T09:35:42;1.50;;;1.40;;
20065;SDS011;10193;48.884;9.182;2022-12-29T09:38:09;1.65;;;1.55;;
20065;SDS011;10193;48.884;9.182;2022-12-29T09:40:36;1.58;;;1.42;;
20065;SDS011;10193;48.884;9.182;2022-12-29T09:43:08;2.28;;;1.70;;
20065;SDS011;10193;48.884;9.182;2022-12-29T09:45:47;1.67;;;1.40;;
20065;SDS011;10193;48.884;9.182;2022-12-29T09:48:22;1.50;;;1.40;;
20065;SDS011;10193;48.884;9.182;2022-12-29T09:50:55;1.98;;;1.80;;
20065;SDS011;10193;48.884;9.182;2022-12-29T09:53:25;2.00;;;1.73;;
20065;SDS011;10193;48.884;9.182;2022-12-29T09:55:55;1.80;;;1.67;;
20065;SDS011;10193;48.884;9.182;2022-12-29T09:58:24;2.40;;;1.92;;
20065;SDS011;10193;48.884;9.182;2022-12-29T10:00:56;1.73;;;1.60;;
20065;SDS011;10193;48.884;9.182;2022-12-29T10:03:32;1.48;;;1.38;;
20065;SDS011;10193;48.884;9.182;2022-12-29T10:06:11;2.75;;;1.50;;
20065;SDS011;10193;48.884;9.182;2022-12-29T10:08:41;1.52;;;1.42;;
20065;SDS011;10193;48.884;9.182;2022-12-29T10:11:18;2.00;;;1.30;;
20065;SDS011;10193;48.884;9.182;2022-12-29T10:14:00;1.23;;;1.10;;
20065;SDS011;10193;48.884;9.182;2022-12-29T10:16:39;2.67;;;1.30;;
20065;SDS011;10193;48.884;9.182;2022-12-29T10:19:15;1.40;;;1.00;;
20065;SDS011;10193;48.884;9.182;2022-12-29T10:22:00;0.90;;;0.90;;
20065;SDS011;10193;48.884;9.182;2022-12-29T10:24:37;1.42;;;1.33;;
20065;SDS011;10193;48.884;9.182;2022-12-29T10:27:05;1.05;;;0.98;;
20065;SDS011;10193;48.884;9.182;2022-12-29T10:29:37;1.30;;;1.17;;
20065;SDS011;10193;48.884;9.182;2022-12-29T10:32:09;1.27;;;1.17;;
20065;SDS011;10193;48.884;9.182;2022-12-29T10:34:45;3.05;;;1.15;;
20065;SDS011;10193;48.884;9.182;2022-12-29T10:37:24;1.42;;;1.33;;
20065;SDS011;10193;48.884;9.182;2022-12-29T10:39:58;1.23;;;1.15;;
20065;SDS011;10193;48.884;9.182;2022-12-29T10:42:33;1.65;;;1.25;;
20065;SDS011;10193;48.884;9.182;2022-12-29T10:45:04;1.33;;;1.23;;
20065;SDS011;10193;48.884;9.182;2022-12-29T10:47:33;1.17;;;1.08;;
20065;SDS011;10193;48.884;9.182;2022-12-29T10:50:04;1.30;;;1.05;;
20065;SDS011;10193;48.884;9.182;2022-12-29T10:52:33;0.85;;;0.80;;
20065;SDS011;10193;48.884;9.182;2022-12-29T10:55:04;1.10;;;1.00;;
20065;SDS011;10193;48.884;9.182;2022-12-29T10:57:37;1.00;;;0.90;;
20065;SDS011;10193;48.884;9.182;2022-12-29T11:00:10;1.67;;;1.10;;
20065;SDS011;10193;48.884;9.182;2022-12-29T11:02:44;1.30;;;1.15;;
20065;SDS011;10193;48.884;9.182;2022-12-29T11:05:19;1.20;;;0.73;;
20065;SDS011;10193;48.884;9.182;2022-12-29T11:07:53;1.17;;;1.05;;
20065;SDS011;10193;48.884;9.182;2022-12-29T11:10:29;1.00;;;0.95;;
20065;SDS011;10193;48.884;9.182;2022-12-29T11:13:01;1.50;;;1.33;;
20065;SDS011;10193;48.884;9.182;2022-12-29T11:15:36;1.17;;;1.08;;
20065;SDS011;10193;48.884;9.182;2022-12-29T11:18:05;1.02;;;1.02;;
20065;SDS011;10193;48.884;9.182;2022-12-29T11:20:44;1.00;;;0.93;;
20065;SDS011;10193;48.884;9.182;2022-12-29T11:23:22;2.13;;;0.90;;
20065;SDS011;10193;48.884;9.182;2022-12-29T11:29:03;3.72;;;1.10;;
20065;SDS011;10193;48.884;9.182;2022-12-29T11:31:43;1.35;;;1.20;;
20065;SDS011;10193;48.884;9.182;2022-12-29T11:34:16;0.90;;;0.85;;
20065;SDS011;10193;48.884;9.182;2022-12-29T11:36:44;1.02;;;0.98;;
20065;SDS011;10193;48.884;9.182;2022-12-29T11:39:22;1.30;;;1.08;;
20065;SDS011;10193;48.884;9.182;2022-12-29T11:41:53;1.27;;;1.17;;
20065;SDS011;10193;48.884;9.182;2022-12-29T11:44:20;1.15;;;1.00;;
20065;SDS011;10193;48.884;9.182;2022-12-29T11:46:48;0.80;;;0.80;;
20065;SDS011;10193;48.884;9.182;2022-12-29T11:49:18;1.10;;;1.08;;
20065;SDS011;10193;48.884;9.182;2022-12-29T11:51:47;1.60;;;0.88;;
20065;SDS011;10193;48.884;9.182;2022-12-29T11:54:16;1.00;;;1.00;;
20065;SDS011;10193;48.884;9.182;2022-12-29T11:56:49;1.00;;;0.95;;
20065;SDS011;10193;48.884;9.182;2022-12-29T12:05:00;1.40;;;0.60;;
20065;SDS011;10193;48.884;9.182;2022-12-29T12:07:34;0.77;;;0.40;;
20065;SDS011;10193;48.884;9.182;2022-12-29T12:10:05;0.50;;;0.50;;
20065;SDS011;10193;48.884;9.182;2022-12-29T12:12:39;0.40;;;0.40;;
20065;SDS011;10193;48.884;9.182;2022-12-29T12:15:13;0.40;;;0.40;;
20065;SDS011;10193;48.884;9.182;2022-12-29T12:17:46;0.68;;;0.45;;
20065;SDS011;10193;48.884;9.182;2022-12-29T12:20:16;1.20;;;0.75;;
20065;SDS011;10193;48.884;9.182;2022-12-29T12:22:49;2.05;;;0.73;;
20065;SDS011;10193;48.884;9.182;2022-12-29T12:25:21;0.80;;;0.80;;
20065;SDS011;10193;48.884;9.182;2022-12-29T12:27:55;0.70;;;0.70;;
20065;SDS011;10193;48.884;9.182;2022-12-29T12:30:26;0.50;;;0.50;;
20065;SDS011;10193;48.884;9.182;2022-12-29T12:33:00;1.30;;;0.90;;
20065;SDS011;10193;48.884;9.182;2022-12-29T12:35:32;1.42;;;1.33;;
20065;SDS011;10193;48.884;9.182;2022-12-29T12:38:12;1.42;;;1.30;;
20065;SDS011;10193;48.884;9.182;2022-12-29T12:43:40;2.20;;;1.27;;
20065;SDS011;10193;48.884;9.182;2022-12-29T12:46:18;2.20;;;1.48;;
20065;SDS011;10193;48.884;9.182;2022-12-29T12:49:00;2.13;;;1.42;;
20065;SDS011;10193;48.884;9.182;2022-12-29T12:51:42;1.85;;;1.60;;
20065;SDS011;10193;48.884;9.182;2022-12-29T12:54:25;1.38;;;1.20;;
20065;SDS011;10193;48.884;9.182;2022-12-29T12:57:07;1.40;;;1.30;;
20065;SDS011;10193;48.884;9.182;2022-12-29T12:59:48;2.05;;;1.30;;
20065;SDS011;10193;48.884;9.182;2022-12-29T13:02:27;1.73;;;1.40;;
20065;SDS011;10193;48.884;9.182;2022-12-29T13:05:09;1.67;;;1.20;;
20065;SDS011;10193;48.884;9.182;2022-12-29T13:07:50;1.40;;;1.30;;
20065;SDS011;10193;48.884;9.182;2022-12-29T13:10:29;1.40;;;0.93;;
20065;SDS011;10193;48.884;9.182;2022-12-29T13:13:18;2.05;;;1.50;;
20065;SDS011;10193;48.884;9.182;2022-12-29T13:16:03;2.33;;;1.38;;
20065;SDS011;10193;48.884;9.182;2022-12-29T13:18:37;1.60;;;1.50;;
20065;SDS011;10193;48.884;9.182;2022-12-29T13:21:16;1.42;;;1.33;;
20065;SDS011;10193;48.884;9.182;2022-12-29T13:23:52;1.88;;;1.75;;
20065;SDS011;10193;48.884;9.182;2022-12-29T13:26:27;2.33;;;1.52;;
20065;SDS011;10193;48.884;9.182;2022-12-29T13:29:03;1.63;;;1.52;;
20065;SDS011;10193;48.884;9.182;2022-12-29T13:31:42;1.70;;;1.00;;
20065;SDS011;10193;48.884;9.182;2022-12-29T13:34:16;1.50;;;1.40;;
20065;SDS011;10193;48.884;9.182;2022-12-29T13:36:53;1.42;;;1.27;;
20065;SDS011;10193;48.884;9.182;2022-12-29T13:39:23;1.45;;;1.35;;
20065;SDS011;10193;48.884;9.182;2022-12-29T13:41:54;2.13;;;1.42;;
20065;SDS011;10193;48.884;9.182;2022-12-29T13:44:22;1.73;;;1.10;;
20065;SDS011;10193;48.884;9.182;2022-12-29T13:46:52;1.23;;;1.15;;
20065;SDS011;10193;48.884;9.182;2022-12-29T13:49:22;0.98;;;0.98;;
20065;SDS011;10193;48.884;9.182;2022-12-29T13:51:50;1.20;;;1.10;;
20065;SDS011;10193;48.884;9.182;2022-12-29T13:54:24;1.42;;;1.10;;
20065;SDS011;10193;48.884;9.182;2022-12-29T13:56:59;1.25;;;1.13;;
20065;SDS011;10193;48.884;9.182;2022-12-29T13:59:34;1.23;;;1.15;;
20065;SDS011;10193;48.884;9.182;2022-12-29T14:02:13;1.85;;;1.50;;
20065;SDS011;10193;48.884;9.182;2022-12-29T14:04:57;1.20;;;1.10;;
20065;SDS011;10193;48.884;9.182;2022-12-29T14:07:26;1.55;;;1.20;;
20065;SDS011;10193;48.884;9.182;2022-12-29T14:09:54;1.35;;;1.17;;
20065;SDS011;10193;48.884;9.182;2022-12-29T14:12:27;1.00;;;0.90;;
20065;SDS011;10193;48.884;9.182;2022-12-29T14:15:02;1.27;;;1.17;;
20065;SDS011;10193;48.884;9.182;2022-12-29T14:17:32;1.23;;;1.10;;
20065;SDS011;10193;48.884;9.182;2022-12-29T14:19:59;1.38;;;0.93;;
20065;SDS011;10193;48.884;9.182;2022-12-29T14:22:27;1.58;;;1.30;;
20065;SDS011;10193;48.884;9.182;2022-12-29T14:24:54;1.27;;;1.17;;
20065;SDS011;10193;48.884;9.182;2022-12-29T14:33:26;1.58;;;1.30;;
20065;SDS011;10193;48.884;9.182;2022-12-29T14:35:55;2.20;;;1.27;;
20065;SDS011;10193;48.884;9.182;2022-12-29T14:38:27;1.13;;;1.13;;
20065;SDS011;10193;48.884;9.182;2022-12-29T14:43:57;2.08;;;0.90;;
20065;SDS011;10193;48.884;9.182;2022-12-29T14:46:40;1.42;;;1.23;;
20065;SDS011;10193;48.884;9.182;2022-12-29T14:49:15;2.20;;;1.40;;
20065;SDS011;10193;48.884;9.182;2022-12-29T14:51:44;1.30;;;1.20;;
20065;SDS011;10193;48.884;9.182;2022-12-29T14:57:07;1.40;;;1.25;;
20065;SDS011;10193;48.884;9.182;2022-12-29T14:59:37;1.20;;;1.10;;
20065;SDS011;10193;48.884;9.182;2022-12-29T15:02:04;1.55;;;1.20;;
20065;SDS011;10193;48.884;9.182;2022-12-29T15:04:43;1.20;;;1.13;;
20065;SDS011;10193;48.884;9.182;2022-12-29T15:07:10;1.33;;;1.20;;
20065;SDS011;10193;48.884;9.182;2022-12-29T15:09:39;1.10;;;1.00;;
20065;SDS011;10193;48.884;9.182;2022-12-29T15:12:15;1.20;;;1.10;;
20065;SDS011;10193;48.884;9.182;2022-12-29T15:14:50;1.40;;;1.27;;
20065;SDS011;10193;48.884;9.182;2022-12-29T15:17:23;1.80;;;1.30;;
20065;SDS011;10193;48.884;9.182;2022-12-29T15:19:52;2.05;;;1.13;;
20065;SDS011;10193;48.884;9.182;2022-12-29T15:22:20;1.45;;;1.35;;
20065;SDS011;10193;48.884;9.182;2022-12-29T15:24:48;1.40;;;1.20;;
20065;SDS011;10193;48.884;9.182;2022-12-29T15:27:19;1.23;;;1.17;;
20065;SDS011;10193;48.884;9.182;2022-12-29T15:29:47;1.73;;;1.35;;
20065;SDS011;10193;48.884;9.182;2022-12-29T15:32:22;2.08;;;1.35;;
20065;SDS011;10193;48.884;9.182;2022-12-29T15:34:50;1.05;;;1.05;;
20065;SDS011;10193;48.884;9.182;2022-12-29T15:37:20;1.85;;;1.38;;